createdAt,value
2018-09-14T00:00:43.464Z,16.00
2018-09-14T00:03:11.652Z,16.00
2018-09-14T00:05:39.761Z,16.00
2018-09-14T00:08:07.892Z,16.10
2018-09-14T00:10:36.093Z,16.10
2018-09-14T00:13:04.150Z,16.10
2018-09-14T00:15:41.732Z,16.00
2018-09-14T00:18:09.822Z,16.00
2018-09-14T00:20:37.909Z,16.00
2018-09-14T00:23:05.985Z,16.00
2018-09-14T00:25:34.195Z,16.10
2018-09-14T00:28:02.304Z,16.10
2018-09-14T00:30:30.305Z,16.10
2018-09-14T00:32:58.419Z,16.00
2018-09-14T00:35:26.672Z,16.00
2018-09-14T00:37:54.886Z,15.90
2018-09-14T00:40:22.972Z,15.80
2018-09-14T00:42:51.184Z,15.90
2018-09-14T00:45:19.364Z,15.90
2018-09-14T00:47:47.733Z,16.00
2018-09-14T00:50:15.826Z,16.00
2018-09-14T00:52:43.961Z,16.00
2018-09-14T00:55:12.135Z,15.60
2018-09-14T00:57:40.361Z,16.30
2018-09-14T01:00:08.463Z,16.10
2018-09-14T01:02:36.532Z,16.10
2018-09-14T01:05:33.949Z,16.10
2018-09-14T01:08:02.001Z,16.20
2018-09-14T01:10:30.093Z,16.20
2018-09-14T01:12:59.232Z,16.20
2018-09-14T01:15:27.312Z,16.20
2018-09-14T01:17:55.484Z,16.20
2018-09-14T01:20:24.166Z,16.10
2018-09-14T01:22:52.410Z,16.10
2018-09-14T01:25:20.607Z,16.20
2018-09-14T01:27:48.860Z,16.10
2018-09-14T01:30:17.023Z,16.30
2018-09-14T01:32:45.168Z,16.20
2018-09-14T01:35:18.816Z,16.30
2018-09-14T01:37:46.941Z,15.80
2018-09-14T01:40:15.110Z,16.30
2018-09-14T01:42:43.428Z,16.40
2018-09-14T01:45:16.913Z,16.40
2018-09-14T01:47:44.953Z,16.40
2018-09-14T01:50:13.112Z,16.30
2018-09-14T01:52:41.310Z,16.30
2018-09-14T01:55:09.353Z,16.30
2018-09-14T01:57:37.406Z,16.40
2018-09-14T02:00:05.931Z,16.50
2018-09-14T02:02:34.053Z,16.50
2018-09-14T02:05:02.289Z,16.60
2018-09-14T02:07:30.445Z,16.60
2018-09-14T02:09:58.610Z,16.50
2018-09-14T02:12:26.717Z,16.50
2018-09-14T02:14:54.836Z,16.50
2018-09-14T02:17:22.915Z,16.00
2018-09-14T02:19:51.021Z,16.50
2018-09-14T02:22:19.166Z,16.50
2018-09-14T02:24:47.280Z,16.30
2018-09-14T02:27:15.306Z,16.30
2018-09-14T02:29:43.414Z,16.20
2018-09-14T02:32:11.504Z,16.40
2018-09-14T02:34:39.676Z,16.30
2018-09-14T02:37:07.790Z,16.30
2018-09-14T02:39:35.966Z,16.30
2018-09-14T02:42:04.215Z,16.30
2018-09-14T02:44:32.701Z,16.40
2018-09-14T02:47:00.786Z,16.40
2018-09-14T02:49:28.936Z,16.50
2018-09-14T02:51:57.168Z,16.50
2018-09-14T02:54:25.195Z,16.60
2018-09-14T02:56:53.362Z,16.50
2018-09-14T02:59:21.499Z,16.50
2018-09-14T03:01:50.332Z,16.50
2018-09-14T03:04:18.462Z,16.50
2018-09-14T03:06:46.717Z,16.50
2018-09-14T03:09:14.939Z,16.60
2018-09-14T03:11:43.151Z,16.50
2018-09-14T03:14:12.021Z,16.50
2018-09-14T03:16:40.851Z,16.50
2018-09-14T03:19:08.987Z,16.50
2018-09-14T03:21:37.121Z,16.50
2018-09-14T03:24:05.267Z,16.50
2018-09-14T03:26:33.332Z,16.40
2018-09-14T03:29:01.520Z,16.40
2018-09-14T03:31:29.824Z,16.40
2018-09-14T03:34:01.875Z,16.40
2018-09-14T03:36:29.971Z,16.80
2018-09-14T03:38:57.999Z,16.40
2018-09-14T03:41:26.321Z,16.50
2018-09-14T03:43:54.606Z,16.50
2018-09-14T03:46:22.867Z,16.40
2018-09-14T03:48:50.924Z,16.40
2018-09-14T03:51:19.124Z,16.50
2018-09-14T03:53:47.285Z,16.60
2018-09-14T03:56:15.463Z,16.40
2018-09-14T03:58:43.571Z,16.60
2018-09-14T04:01:11.696Z,16.60
2018-09-14T04:03:39.891Z,16.60
2018-09-14T04:06:09.182Z,16.60
2018-09-14T04:08:37.379Z,16.60
2018-09-14T04:11:05.525Z,16.60
2018-09-14T04:13:33.954Z,16.30
2018-09-14T04:16:02.054Z,16.50
2018-09-14T04:18:30.246Z,16.60
2018-09-14T04:20:58.401Z,16.20
2018-09-14T04:23:26.523Z,16.50
2018-09-14T04:25:55.375Z,16.60
2018-09-14T04:28:23.481Z,16.50
2018-09-14T04:30:51.682Z,16.40
2018-09-14T04:33:19.826Z,16.20
2018-09-14T04:35:47.949Z,16.50
2018-09-14T04:38:16.063Z,16.10
2018-09-14T04:40:44.100Z,16.70
2018-09-14T04:43:12.121Z,16.70
2018-09-14T04:45:40.310Z,16.70
2018-09-14T04:48:08.594Z,16.70
2018-09-14T04:50:36.796Z,16.70
2018-09-14T04:53:05.063Z,16.60
2018-09-14T04:55:33.125Z,16.60
2018-09-14T04:58:01.433Z,16.50
2018-09-14T05:00:29.510Z,16.50
2018-09-14T05:02:58.465Z,16.40
2018-09-14T05:05:26.716Z,16.20
2018-09-14T05:07:54.947Z,15.80
2018-09-14T05:10:24.655Z,16.20
2018-09-14T05:12:52.828Z,16.20
2018-09-14T05:15:20.948Z,16.30
2018-09-14T05:17:49.210Z,15.90
2018-09-14T05:20:17.342Z,16.40
2018-09-14T05:22:45.629Z,16.40
2018-09-14T05:25:14.016Z,16.50
2018-09-14T05:27:42.094Z,16.50
2018-09-14T05:30:10.202Z,16.20
2018-09-14T05:32:38.414Z,15.90
2018-09-14T05:35:06.825Z,16.10
2018-09-14T05:37:35.045Z,15.90
2018-09-14T05:40:03.946Z,16.50
2018-09-14T05:42:32.369Z,16.10
2018-09-14T05:45:00.593Z,16.50
2018-09-14T05:47:28.709Z,16.60
2018-09-14T05:49:56.854Z,16.60
2018-09-14T05:52:24.936Z,16.20
2018-09-14T05:54:53.122Z,16.70
2018-09-14T05:57:21.395Z,16.70
2018-09-14T05:59:49.603Z,16.40
2018-09-14T06:02:17.945Z,16.20
2018-09-14T06:04:47.382Z,16.80
2018-09-14T06:07:15.753Z,16.80
2018-09-14T06:09:43.782Z,16.80
2018-09-14T06:12:12.051Z,16.90
2018-09-14T06:14:40.706Z,16.90
2018-09-14T06:17:08.918Z,16.90
2018-09-14T06:19:37.020Z,16.70
2018-09-14T06:22:05.264Z,16.90
2018-09-14T06:24:33.460Z,16.90
2018-09-14T06:27:01.736Z,16.90
2018-09-14T06:29:29.897Z,16.80
2018-09-14T06:31:58.185Z,16.70
2018-09-14T06:34:26.334Z,16.70
2018-09-14T06:36:54.509Z,16.80
2018-09-14T06:39:23.269Z,16.80
2018-09-14T06:41:51.397Z,17.20
2018-09-14T06:44:19.473Z,16.60
2018-09-14T06:46:47.808Z,17.00
2018-09-14T06:49:16.052Z,17.00
2018-09-14T06:51:44.228Z,17.00
2018-09-14T06:54:12.881Z,16.50
2018-09-14T06:56:41.003Z,17.00
2018-09-14T06:59:09.267Z,17.00
2018-09-14T07:01:37.380Z,17.00
2018-09-14T07:04:05.591Z,17.10
2018-09-14T07:06:33.787Z,16.80
2018-09-14T07:09:01.853Z,17.00
2018-09-14T07:11:30.289Z,17.00
2018-09-14T07:13:58.532Z,17.00
2018-09-14T07:16:26.721Z,17.00
2018-09-14T07:18:55.037Z,17.20
2018-09-14T07:21:23.271Z,17.30
2018-09-14T07:23:51.495Z,17.40
2018-09-14T07:26:19.780Z,17.00
2018-09-14T07:28:48.242Z,17.50
2018-09-14T07:31:16.426Z,17.60
2018-09-14T07:33:44.837Z,17.10
2018-09-14T07:36:13.281Z,17.60
2018-09-14T07:38:41.480Z,17.60
2018-09-14T07:41:09.657Z,17.60
2018-09-14T07:43:37.862Z,17.80
2018-09-14T07:46:06.128Z,17.80
2018-09-14T07:48:34.358Z,17.80
2018-09-14T07:51:02.622Z,17.70
2018-09-14T07:53:30.868Z,18.00
2018-09-14T07:55:59.009Z,18.10
2018-09-14T07:58:27.090Z,18.20
2018-09-14T08:00:56.181Z,18.50
2018-09-14T08:03:24.337Z,18.70
2018-09-14T08:05:52.433Z,18.90
2018-09-14T08:08:20.477Z,19.00
2018-09-14T08:10:48.558Z,19.00
2018-09-14T08:13:16.890Z,19.00
2018-09-14T08:15:45.901Z,19.30
2018-09-14T08:18:13.997Z,19.60
2018-09-14T08:20:42.149Z,20.10
2018-09-14T08:23:10.308Z,20.30
2018-09-14T08:25:38.501Z,20.70
2018-09-14T08:28:06.813Z,20.50
2018-09-14T08:30:34.967Z,20.50
2018-09-14T08:33:03.196Z,20.60
2018-09-14T08:35:31.402Z,20.60
2018-09-14T08:37:59.611Z,20.30
2018-09-14T08:40:27.874Z,20.20
2018-09-14T08:42:56.115Z,20.20
2018-09-14T08:45:24.223Z,20.20
2018-09-14T08:47:52.351Z,20.20
2018-09-14T08:50:20.445Z,20.20
2018-09-14T08:52:48.707Z,20.20
2018-09-14T08:55:16.832Z,20.10
2018-09-14T08:57:45.041Z,19.70
2018-09-14T09:00:16.110Z,19.60
2018-09-14T09:02:44.693Z,19.20
2018-09-14T09:05:12.873Z,19.80
2018-09-14T09:07:41.095Z,19.80
2018-09-14T09:10:09.281Z,19.80
2018-09-14T09:12:37.553Z,19.50
2018-09-14T09:15:06.032Z,20.10
2018-09-14T09:17:35.271Z,20.40
2018-09-14T09:20:03.458Z,20.70
2018-09-14T09:22:31.605Z,21.50
2018-09-14T09:24:59.810Z,21.90
2018-09-14T09:27:28.202Z,22.10
2018-09-14T09:29:56.346Z,22.90
2018-09-14T09:32:24.985Z,23.60
2018-09-14T09:34:53.247Z,24.20
2018-09-14T09:37:21.490Z,24.70
2018-09-14T09:39:49.653Z,24.50
2018-09-14T09:42:17.821Z,24.40
2018-09-14T09:44:45.998Z,24.40
2018-09-14T09:47:14.241Z,24.20
2018-09-14T09:49:42.362Z,24.30
2018-09-14T09:52:10.501Z,24.30
2018-09-14T09:54:38.677Z,24.30
2018-09-14T09:57:06.886Z,24.40
2018-09-14T09:59:35.253Z,24.50
2018-09-14T10:02:09.028Z,23.90
2018-09-14T10:06:48.429Z,24.00
2018-09-14T10:09:16.692Z,24.30
2018-09-14T10:11:44.874Z,24.40
2018-09-14T10:14:13.018Z,24.80
2018-09-14T10:16:41.270Z,25.20
2018-09-14T10:19:09.374Z,26.00
2018-09-14T10:21:37.580Z,26.80
2018-09-14T10:24:05.790Z,27.80
2018-09-14T10:26:34.125Z,28.30
2018-09-14T10:29:02.389Z,29.10
2018-09-14T10:31:30.493Z,29.90
2018-09-14T10:33:58.695Z,30.10
2018-09-14T10:36:26.823Z,28.70
2018-09-14T10:38:54.982Z,27.70
2018-09-14T10:41:23.281Z,27.10
2018-09-14T10:43:51.538Z,26.30
2018-09-14T10:46:19.802Z,26.10
2018-09-14T10:48:47.989Z,26.00
2018-09-14T10:51:16.078Z,25.90
2018-09-14T10:53:44.249Z,26.50
2018-09-14T10:56:12.368Z,26.20
2018-09-14T10:58:43.473Z,26.00
2018-09-14T11:01:14.681Z,25.60
2018-09-14T11:03:43.194Z,24.90
2018-09-14T11:06:11.954Z,25.10
2018-09-14T11:08:40.087Z,25.40
2018-09-14T11:11:09.159Z,25.70
2018-09-14T11:13:37.357Z,26.50
2018-09-14T11:16:05.492Z,26.80
2018-09-14T11:18:33.622Z,27.80
2018-09-14T11:21:02.025Z,28.40
2018-09-14T11:23:31.017Z,29.00
2018-09-14T11:25:59.229Z,30.80
2018-09-14T11:28:27.509Z,31.90
2018-09-14T11:30:55.784Z,31.40
2018-09-14T11:33:24.003Z,30.60
2018-09-14T11:35:52.404Z,30.30
2018-09-14T11:38:20.532Z,29.50
2018-09-14T11:40:48.784Z,29.50
2018-09-14T11:43:17.040Z,28.60
2018-09-14T11:45:45.234Z,29.00
2018-09-14T11:48:13.431Z,28.80
2018-09-14T11:50:41.508Z,29.10
2018-09-14T11:53:09.727Z,28.70
2018-09-14T11:55:37.905Z,28.60
2018-09-14T11:58:06.113Z,28.40
2018-09-14T12:00:35.198Z,27.80
2018-09-14T12:03:03.410Z,27.10
2018-09-14T12:05:31.502Z,27.10
2018-09-14T12:07:59.646Z,27.10
2018-09-14T12:10:27.865Z,26.40
2018-09-14T12:12:56.131Z,25.70
2018-09-14T12:15:24.440Z,25.40
2018-09-14T12:17:52.649Z,25.10
2018-09-14T12:20:20.860Z,25.00
2018-09-14T12:22:49.105Z,24.50
2018-09-14T12:25:17.134Z,24.10
2018-09-14T12:27:45.321Z,24.40
2018-09-14T12:30:13.434Z,24.40
2018-09-14T12:32:41.532Z,24.50
2018-09-14T12:35:09.859Z,24.40
2018-09-14T12:37:37.948Z,24.50
2018-09-14T12:40:06.198Z,24.00
2018-09-14T12:42:34.409Z,24.00
2018-09-14T12:45:02.766Z,23.60
2018-09-14T12:47:30.929Z,23.80
2018-09-14T12:49:59.029Z,23.70
2018-09-14T12:52:27.152Z,23.90
2018-09-14T12:54:55.265Z,24.20
2018-09-14T12:57:23.397Z,24.20
2018-09-14T12:59:51.468Z,24.60
2018-09-14T13:02:19.563Z,25.30
2018-09-14T13:04:47.663Z,25.70
2018-09-14T13:07:15.866Z,25.70
2018-09-14T13:09:43.930Z,26.00
2018-09-14T13:12:12.065Z,25.80
2018-09-14T13:14:40.233Z,25.60
2018-09-14T13:17:11.709Z,25.50
2018-09-14T13:19:40.255Z,25.90
2018-09-14T13:22:08.881Z,25.40
2018-09-14T13:24:37.017Z,25.40
2018-09-14T13:27:05.239Z,25.40
2018-09-14T13:29:33.655Z,25.20
2018-09-14T13:32:01.735Z,24.90
2018-09-14T13:34:29.865Z,24.70
2018-09-14T13:36:58.070Z,24.80
2018-09-14T13:39:26.161Z,24.70
2018-09-14T13:41:54.242Z,25.10
2018-09-14T13:44:22.296Z,24.80
2018-09-14T13:46:51.466Z,24.70
2018-09-14T13:49:19.571Z,24.50
2018-09-14T13:51:47.742Z,24.00
2018-09-14T13:54:15.868Z,23.90
2018-09-14T13:56:43.971Z,23.80
2018-09-14T13:59:12.922Z,23.20
2018-09-14T14:01:41.152Z,23.60
2018-09-14T14:04:09.060Z,23.60
2018-09-14T14:06:37.147Z,23.50
2018-09-14T14:09:09.782Z,23.30
2018-09-14T14:11:37.933Z,23.20
2018-09-14T14:14:06.354Z,23.20
2018-09-14T14:16:34.653Z,23.20
2018-09-14T14:19:02.901Z,23.30
2018-09-14T14:21:30.936Z,23.30
2018-09-14T14:23:59.053Z,23.20
2018-09-14T14:26:27.199Z,23.00
2018-09-14T14:28:55.348Z,22.90
2018-09-14T14:31:23.512Z,23.00
2018-09-14T14:33:54.566Z,22.90
2018-09-14T14:36:33.577Z,23.00
2018-09-14T14:39:01.930Z,22.70
2018-09-14T14:41:37.769Z,22.70
2018-09-14T14:44:16.039Z,22.60
2018-09-14T14:46:49.727Z,22.80
2018-09-14T14:49:24.417Z,22.80
2018-09-14T14:52:07.429Z,21.70
2018-09-14T14:54:35.643Z,22.80
2018-09-14T14:57:05.627Z,22.70
2018-09-14T14:59:35.732Z,22.70
2018-09-14T15:02:03.908Z,22.90
2018-09-14T15:04:32.415Z,23.00
2018-09-14T15:07:00.598Z,23.00
2018-09-14T15:09:28.805Z,23.50
2018-09-14T15:11:57.298Z,24.10
2018-09-14T15:14:28.710Z,24.50
2018-09-14T15:17:01.213Z,24.40
2018-09-14T15:19:29.518Z,24.50
2018-09-14T15:21:57.778Z,24.60
2018-09-14T15:24:25.996Z,24.40
2018-09-14T15:26:54.168Z,24.50
2018-09-14T15:29:22.395Z,24.40
2018-09-14T15:31:50.635Z,25.30
2018-09-14T15:34:21.950Z,25.20
2018-09-14T15:36:58.586Z,25.50
2018-09-14T15:39:27.202Z,25.10
2018-09-14T15:44:40.863Z,25.80
2018-09-14T15:47:09.033Z,25.50
2018-09-14T15:49:37.224Z,25.70
2018-09-14T15:52:05.465Z,25.50
2018-09-14T15:54:34.428Z,25.10
2018-09-14T15:57:02.603Z,25.10
2018-09-14T15:59:30.751Z,25.10
2018-09-14T16:01:58.930Z,24.70
2018-09-14T16:04:27.308Z,24.20
2018-09-14T16:06:55.477Z,24.30
2018-09-14T16:09:23.661Z,24.00
2018-09-14T16:11:51.758Z,23.70
2018-09-14T16:14:19.864Z,23.40
2018-09-14T16:16:47.864Z,23.00
2018-09-14T16:19:16.102Z,22.60
2018-09-14T16:21:44.335Z,22.50
2018-09-14T16:24:12.593Z,22.20
2018-09-14T16:26:40.666Z,22.30
2018-09-14T16:29:08.809Z,22.10
2018-09-14T16:31:37.094Z,22.10
2018-09-14T16:34:05.225Z,21.60
2018-09-14T16:36:33.376Z,21.70
2018-09-14T16:39:01.817Z,21.70
2018-09-14T16:41:29.962Z,22.10
2018-09-14T16:43:58.135Z,21.60
2018-09-14T16:46:26.446Z,21.30
2018-09-14T16:48:54.583Z,21.50
2018-09-14T16:51:22.890Z,21.30
2018-09-14T16:53:51.026Z,21.30
2018-09-14T16:56:19.144Z,21.30
2018-09-14T16:58:47.274Z,21.30
2018-09-14T17:01:15.406Z,21.30
2018-09-14T17:03:43.591Z,21.20
2018-09-14T17:06:11.814Z,21.10
2018-09-14T17:08:40.035Z,21.00
2018-09-14T17:11:08.616Z,20.80
2018-09-14T17:13:36.818Z,20.70
2018-09-14T17:16:04.993Z,20.60
2018-09-14T17:18:33.475Z,20.50
2018-09-14T17:21:01.732Z,20.40
2018-09-14T17:23:29.952Z,20.20
2018-09-14T17:25:58.143Z,20.10
2018-09-14T17:28:26.205Z,20.10
2018-09-14T17:30:54.497Z,20.10
2018-09-14T17:33:22.615Z,20.00
2018-09-14T17:35:50.808Z,19.80
2018-09-14T17:38:18.913Z,19.80
2018-09-14T17:40:47.018Z,19.70
2018-09-14T17:43:15.185Z,19.70
2018-09-14T17:45:43.403Z,19.60
2018-09-14T17:48:11.605Z,19.60
2018-09-14T17:50:39.774Z,19.50
2018-09-14T17:53:08.001Z,19.50
2018-09-14T17:55:36.293Z,19.40
2018-09-14T17:58:04.468Z,19.30
2018-09-14T18:00:32.640Z,19.20
2018-09-14T18:03:00.862Z,19.10
2018-09-14T18:05:29.105Z,19.00
2018-09-14T18:07:57.294Z,18.80
2018-09-14T18:10:25.479Z,18.70
2018-09-14T18:12:53.699Z,18.50
2018-09-14T18:15:26.504Z,18.50
2018-09-14T18:17:54.770Z,18.40
2018-09-14T18:20:23.000Z,18.40
2018-09-14T18:22:51.199Z,18.40
2018-09-14T18:25:19.400Z,18.40
2018-09-14T18:27:47.793Z,18.40
2018-09-14T18:30:15.834Z,18.40
2018-09-14T18:32:44.304Z,18.40
2018-09-14T18:35:12.720Z,18.50
2018-09-14T18:37:41.124Z,18.50
2018-09-14T18:40:09.497Z,18.50
2018-09-14T18:42:37.929Z,18.50
2018-09-14T18:45:06.238Z,17.90
2018-09-14T18:47:35.208Z,18.40
2018-09-14T18:50:03.790Z,18.40
2018-09-14T18:52:32.408Z,17.90
2018-09-14T18:55:00.810Z,18.00
2018-09-14T18:57:29.226Z,18.30
2018-09-14T18:59:57.766Z,18.30
2018-09-14T19:02:26.477Z,18.10
2018-09-14T19:04:54.998Z,18.40
2018-09-14T19:07:23.248Z,18.60
2018-09-14T19:09:51.692Z,18.40
2018-09-14T19:12:19.903Z,18.40
2018-09-14T19:14:48.122Z,18.40
2018-09-14T19:17:16.463Z,17.90
2018-09-14T19:19:44.970Z,18.20
2018-09-14T19:22:13.630Z,18.20
2018-09-14T19:24:42.088Z,18.30
2018-09-14T19:27:10.595Z,18.30
2018-09-14T19:29:39.090Z,18.30
2018-09-14T19:32:07.357Z,18.30
2018-09-14T19:34:35.864Z,18.20
2018-09-14T19:37:04.065Z,18.10
2018-09-14T19:39:32.230Z,17.70
2018-09-14T19:42:00.651Z,18.10
2018-09-14T19:44:29.308Z,18.10
2018-09-14T19:46:57.815Z,18.20
2018-09-14T19:49:26.022Z,18.10
2018-09-14T19:51:54.463Z,18.10
2018-09-14T19:54:23.828Z,17.70
2018-09-14T19:56:52.635Z,17.90
2018-09-14T19:59:20.976Z,17.50
2018-09-14T20:01:49.339Z,17.80
2018-09-14T20:04:17.768Z,17.90
2018-09-14T20:06:46.024Z,17.80
2018-09-14T20:09:15.111Z,17.80
2018-09-14T20:11:43.682Z,17.80
2018-09-14T20:14:11.973Z,17.80
2018-09-14T20:16:40.345Z,17.60
2018-09-14T20:19:08.550Z,17.80
2018-09-14T20:21:36.905Z,17.70
2018-09-14T20:24:05.130Z,17.10
2018-09-14T20:26:33.309Z,17.20
2018-09-14T20:29:01.381Z,17.60
2018-09-14T20:31:29.471Z,17.60
2018-09-14T20:33:57.625Z,17.60
2018-09-14T20:36:25.860Z,17.50
2018-09-14T20:38:54.231Z,17.40
2018-09-14T20:41:22.324Z,17.50
2018-09-14T20:43:50.562Z,17.50
2018-09-14T20:46:18.775Z,17.40
2018-09-14T20:48:47.084Z,17.40
2018-09-14T20:51:15.356Z,17.40
2018-09-14T20:53:43.577Z,17.40
2018-09-14T20:56:11.911Z,17.30
2018-09-14T20:58:40.145Z,17.30
2018-09-14T21:01:08.322Z,17.00
2018-09-14T21:03:36.530Z,17.30
2018-09-14T21:06:04.831Z,17.30
2018-09-14T21:08:33.019Z,17.30
2018-09-14T21:11:01.240Z,17.30
2018-09-14T21:13:30.379Z,17.30
2018-09-14T21:15:58.554Z,17.30
2018-09-14T21:18:26.782Z,17.20
2018-09-14T21:20:56.008Z,16.90
2018-09-14T21:23:26.300Z,17.00
2018-09-14T21:25:54.485Z,17.10
2018-09-14T21:28:22.805Z,17.10
2018-09-14T21:30:51.068Z,17.10
2018-09-14T21:33:19.233Z,17.10
2018-09-14T21:35:47.512Z,17.00
2018-09-14T21:38:15.785Z,16.90
2018-09-14T21:40:43.986Z,16.90
2018-09-14T21:43:12.137Z,16.90
2018-09-14T21:45:40.311Z,16.90
2018-09-14T21:48:08.471Z,16.80
2018-09-14T21:50:36.753Z,16.50
2018-09-14T21:53:04.894Z,16.70
2018-09-14T21:55:33.138Z,16.60
2018-09-14T21:58:01.347Z,16.60
2018-09-14T22:00:35.345Z,16.60
2018-09-14T22:03:03.555Z,16.60
2018-09-14T22:05:31.585Z,16.70
2018-09-14T22:07:59.782Z,16.60
2018-09-14T22:10:28.002Z,16.60
2018-09-14T22:12:56.079Z,16.50
2018-09-14T22:15:24.230Z,16.40
2018-09-14T22:17:53.949Z,16.30
2018-09-14T22:20:22.052Z,16.40
2018-09-14T22:22:50.201Z,16.40
2018-09-14T22:25:18.362Z,16.30
2018-09-14T22:27:46.699Z,16.30
2018-09-14T22:30:14.882Z,16.20
2018-09-14T22:32:43.019Z,16.40
2018-09-14T22:35:11.374Z,16.30
2018-09-14T22:37:39.682Z,16.30
2018-09-14T22:40:08.864Z,16.20
2018-09-14T22:42:36.947Z,16.20
2018-09-14T22:45:05.318Z,16.20
2018-09-14T22:47:33.341Z,16.30
2018-09-14T22:50:01.417Z,16.30
2018-09-14T22:52:29.581Z,16.30
2018-09-14T22:54:57.792Z,16.40
2018-09-14T22:57:25.904Z,16.40
2018-09-14T22:59:53.985Z,16.30
2018-09-14T23:02:22.170Z,16.40
2018-09-14T23:04:50.701Z,16.40
2018-09-14T23:07:18.912Z,16.40
2018-09-14T23:09:47.244Z,16.30
2018-09-14T23:12:15.412Z,16.30
2018-09-14T23:14:43.464Z,16.30
2018-09-14T23:17:11.741Z,16.30
2018-09-14T23:19:39.904Z,16.30
2018-09-14T23:22:08.437Z,16.20
2018-09-14T23:24:36.595Z,16.20
2018-09-14T23:27:04.908Z,16.10
2018-09-14T23:29:33.068Z,16.10
2018-09-14T23:32:01.333Z,16.20
2018-09-14T23:34:29.606Z,16.20
2018-09-14T23:36:57.871Z,16.10
2018-09-14T23:39:26.108Z,16.10
2018-09-14T23:41:54.353Z,16.20
2018-09-14T23:44:22.620Z,16.20
2018-09-14T23:46:50.885Z,16.20
2018-09-14T23:49:19.051Z,16.20
2018-09-14T23:51:47.252Z,16.30
2018-09-14T23:54:15.437Z,16.20
2018-09-14T23:56:43.721Z,16.10
2018-09-14T23:59:11.907Z,16.10
